Time;durP1;ratioP1;P1;durP2;ratioP2;P2;SDS_P1;SDS_P2;PMS_P1;PMS_P2;Temp;Humidity;BMP_temperature;BMP_pressure;BME280_temperature;BME280_humidity;BME280_pressure;Samples;Min_cycle;Max_cycle;Signal;HPM_P1;HPM_P2
2023/12/15 00:00:56;;;;;;;;;;;8.10;86.70;;;;;;4994082;28;92092;-45
2023/12/15 00:03:22;;;;;;;;;;;8.10;86.70;;;;;;4993714;28;92679;-45
2023/12/15 00:05:47;;;;;;;;;;;8.10;87.30;;;;;;4990527;28;92049;-45
2023/12/15 00:08:13;;;;;;;;;;;8.10;86.70;;;;;;5002333;28;92187;-44
2023/12/15 00:10:38;;;;;;;;;;;8.10;86.80;;;;;;4992905;28;92346;-45
2023/12/15 00:13:04;;;;;;;;;;;8.10;86.60;;;;;;4994011;28;92053;-45
2023/12/15 00:15:29;;;;;;;;;;;8.10;86.70;;;;;;4991119;28;93614;-45
2023/12/15 00:17:55;;;;;;;;;;;8.00;86.70;;;;;;4993520;28;92081;-44
2023/12/15 00:20:21;;;;;;;;;;;8.00;86.70;;;;;;4994305;28;92105;-45
2023/12/15 00:22:46;;;;;;;;;;;8.10;86.70;;;;;;4992684;28;92697;-46
2023/12/15 00:25:12;;;;;;;;;;;8.00;86.60;;;;;;4994290;28;92093;-45
2023/12/15 00:27:37;;;;;;;;;;;8.00;86.70;;;;;;4994737;28;91980;-46
2023/12/15 00:30:03;;;;;;;;;;;8.00;86.70;;;;;;4996971;28;92531;-45
2023/12/15 00:32:29;;;;;;;;;;;8.00;86.70;;;;;;4991423;28;91608;-45
2023/12/15 00:34:54;;;;;;;;;;;8.00;86.60;;;;;;4994464;28;93578;-45
2023/12/15 00:37:23;;;;;;;;;;;8.00;86.60;;;;;;4995845;28;92630;-46
2023/12/15 00:39:48;;;;;;;;;;;8.00;86.70;;;;;;4995988;28;93026;-44
2023/12/15 00:42:14;;;;;;;;;;;8.00;86.70;;;;;;4996637;28;92726;-44
2023/12/15 00:44:39;;;;;;;;;;;8.00;86.60;;;;;;4997947;28;92047;-45
2023/12/15 00:47:05;;;;;;;;;;;8.00;86.60;;;;;;4997754;28;91933;-45
2023/12/15 00:49:30;;;;;;;;;;;8.00;86.60;;;;;;4995406;28;93671;-45
2023/12/15 00:51:56;;;;;;;;;;;8.00;86.70;;;;;;4997687;28;92078;-45
2023/12/15 00:54:22;;;;;;;;;;;8.00;86.60;;;;;;4996446;28;93099;-46
2023/12/15 00:56:47;;;;;;;;;;;8.00;86.60;;;;;;4993773;28;91454;-45
2023/12/15 00:59:13;;;;;;;;;;;8.00;86.70;;;;;;4997512;28;92134;-45
2023/12/15 01:01:38;;;;;;;;;;;8.00;86.70;;;;;;4993439;28;92457;-45
2023/12/15 01:04:04;;;;;;;;;;;7.90;86.70;;;;;;4995808;28;92938;-45
2023/12/15 01:06:30;;;;;;;;;;;7.90;86.70;;;;;;4994278;28;92556;-45
2023/12/15 01:08:56;;;;;;;;;;;7.90;86.60;;;;;;4995602;28;93510;-44
2023/12/15 01:11:21;;;;;;;;;;;7.90;86.60;;;;;;4994866;28;92058;-45
2023/12/15 01:13:47;;;;;;;;;;;7.90;86.70;;;;;;4999899;28;92074;-46
2023/12/15 01:16:12;;;;;;;;;;;7.90;86.60;;;;;;4997522;28;92150;-45
2023/12/15 01:18:38;;;;;;;;;;;8.00;86.60;;;;;;4995517;28;92936;-46
2023/12/15 01:21:05;;;;;;;;;;;7.90;86.60;;;;;;4996592;28;92739;-45
2023/12/15 01:23:31;;;;;;;;;;;7.90;86.80;;;;;;4997009;28;92055;-44
2023/12/15 01:25:57;;;;;;;;;;;7.90;86.60;;;;;;4996997;28;92717;-44
2023/12/15 01:28:22;;;;;;;;;;;7.90;86.70;;;;;;4991905;28;94425;-44
2023/12/15 01:30:48;;;;;;;;;;;7.90;86.60;;;;;;4996657;28;91980;-45
2023/12/15 01:33:13;;;;;;;;;;;7.90;86.60;;;;;;4998012;28;92995;-45
2023/12/15 01:35:39;;;;;;;;;;;7.90;86.70;;;;;;4998899;28;92036;-45
2023/12/15 01:38:04;;;;;;;;;;;7.90;86.70;;;;;;4996813;28;92453;-45
2023/12/15 01:40:30;;;;;;;;;;;7.90;86.60;;;;;;4999688;28;92647;-46
2023/12/15 01:43:02;;;;;;;;;;;7.90;86.60;;;;;;4995396;28;91978;-45
2023/12/15 01:45:28;;;;;;;;;;;7.90;86.60;;;;;;4995718;28;92255;-45
2023/12/15 01:47:54;;;;;;;;;;;7.90;86.60;;;;;;4996278;28;92562;-46
2023/12/15 01:50:20;;;;;;;;;;;7.90;86.60;;;;;;4995871;28;92149;-45
2023/12/15 01:52:45;;;;;;;;;;;7.90;86.50;;;;;;4996373;28;92899;-45
2023/12/15 01:55:11;;;;;;;;;;;7.90;86.60;;;;;;4995408;28;92422;-45
2023/12/15 01:57:36;;;;;;;;;;;7.90;86.50;;;;;;4996440;28;92847;-45
2023/12/15 02:00:06;;;;;;;;;;;7.90;86.60;;;;;;4995567;28;92448;-45
2023/12/15 02:02:35;;;;;;;;;;;7.80;86.60;;;;;;4993537;28;92102;-45
2023/12/15 02:05:02;;;;;;;;;;;7.80;86.50;;;;;;4994040;28;92044;-44
2023/12/15 02:07:28;;;;;;;;;;;7.80;86.50;;;;;;4994466;28;95205;-44
2023/12/15 02:09:54;;;;;;;;;;;7.80;86.50;;;;;;4994025;28;91317;-45
2023/12/15 02:12:20;;;;;;;;;;;7.80;86.60;;;;;;4992309;28;92196;-46
2023/12/15 02:14:46;;;;;;;;;;;7.80;86.70;;;;;;4995691;28;92599;-45
2023/12/15 02:17:11;;;;;;;;;;;7.80;86.70;;;;;;4995154;28;93104;-46
2023/12/15 02:19:37;;;;;;;;;;;7.80;86.60;;;;;;4998094;28;93558;-45
2023/12/15 02:22:03;;;;;;;;;;;7.80;86.70;;;;;;4995422;28;92073;-44
2023/12/15 02:24:28;;;;;;;;;;;7.70;86.60;;;;;;4992915;28;92011;-45
2023/12/15 02:26:54;;;;;;;;;;;7.80;86.60;;;;;;4994806;28;92580;-46
2023/12/15 02:29:19;;;;;;;;;;;7.80;86.60;;;;;;4993238;28;92166;-44
2023/12/15 02:31:45;;;;;;;;;;;7.80;86.60;;;;;;4997344;28;92011;-45
2023/12/15 02:34:11;;;;;;;;;;;7.70;86.60;;;;;;4997035;28;91196;-45
2023/12/15 02:36:36;;;;;;;;;;;7.80;86.60;;;;;;4995828;28;92805;-46
2023/12/15 02:39:04;;;;;;;;;;;7.70;86.60;;;;;;4999888;28;92085;-46
2023/12/15 02:41:30;;;;;;;;;;;7.80;86.60;;;;;;4994001;28;93028;-45
2023/12/15 02:43:56;;;;;;;;;;;7.70;86.60;;;;;;4992749;28;92754;-45
2023/12/15 02:46:21;;;;;;;;;;;7.70;86.60;;;;;;4995020;28;92532;-45
2023/12/15 02:48:47;;;;;;;;;;;7.70;86.60;;;;;;4992211;28;92080;-45
2023/12/15 02:51:29;;;;;;;;;;;7.70;86.70;;;;;;4992680;28;92822;-45
2023/12/15 02:53:54;;;;;;;;;;;7.70;86.70;;;;;;4992826;28;92700;-44
2023/12/15 02:56:20;;;;;;;;;;;7.70;86.70;;;;;;4994862;28;92010;-45
2023/12/15 02:58:45;;;;;;;;;;;7.70;86.80;;;;;;4993177;28;91973;-46
2023/12/15 03:01:11;;;;;;;;;;;7.70;86.70;;;;;;4997761;28;92567;-44
2023/12/15 03:03:37;;;;;;;;;;;7.70;86.70;;;;;;5002768;28;92732;-44
2023/12/15 03:06:02;;;;;;;;;;;7.60;86.70;;;;;;4989850;28;93373;-46
2023/12/15 03:08:28;;;;;;;;;;;7.70;86.70;;;;;;4995139;28;92015;-45
2023/12/15 03:10:57;;;;;;;;;;;7.70;86.70;;;;;;4995069;28;92820;-45
2023/12/15 03:13:26;;;;;;;;;;;7.60;86.70;;;;;;4994443;28;93556;-45
2023/12/15 03:15:51;;;;;;;;;;;7.60;86.60;;;;;;4993325;28;92003;-45
2023/12/15 03:18:17;;;;;;;;;;;7.60;86.60;;;;;;4997932;28;93494;-45
2023/12/15 03:20:43;;;;;;;;;;;7.60;86.60;;;;;;4993681;28;92522;-46
2023/12/15 03:23:09;;;;;;;;;;;7.60;86.70;;;;;;4998145;28;91252;-46
2023/12/15 03:25:35;;;;;;;;;;;7.60;86.70;;;;;;4991371;28;93797;-45
2023/12/15 03:28:00;;;;;;;;;;;7.60;86.70;;;;;;4990910;28;92606;-46
2023/12/15 03:30:26;;;;;;;;;;;7.60;86.70;;;;;;4995540;28;93047;-44
2023/12/15 03:32:51;;;;;;;;;;;7.60;86.70;;;;;;4993087;28;92441;-45
2023/12/15 03:35:17;;;;;;;;;;;7.60;86.70;;;;;;4993817;28;92097;-44
2023/12/15 03:37:43;;;;;;;;;;;7.60;86.60;;;;;;4991964;28;92073;-45
2023/12/15 03:40:08;;;;;;;;;;;7.60;86.60;;;;;;4993480;28;93501;-45
2023/12/15 03:42:34;;;;;;;;;;;7.60;86.70;;;;;;4995637;28;92538;-45
2023/12/15 03:45:00;;;;;;;;;;;7.60;86.60;;;;;;4993152;28;92570;-45
2023/12/15 03:47:25;;;;;;;;;;;7.60;86.60;;;;;;4993523;28;91287;-46
2023/12/15 03:49:51;;;;;;;;;;;7.60;86.50;;;;;;4992594;28;92147;-46
2023/12/15 03:52:16;;;;;;;;;;;7.60;86.60;;;;;;4994761;28;92285;-45
2023/12/15 03:54:42;;;;;;;;;;;7.60;86.60;;;;;;4991525;28;92971;-45
2023/12/15 03:57:07;;;;;;;;;;;7.50;86.50;;;;;;4995037;28;93730;-45
2023/12/15 03:59:33;;;;;;;;;;;7.50;86.50;;;;;;4990539;28;92475;-46
2023/12/15 04:01:59;;;;;;;;;;;7.50;86.60;;;;;;4995100;28;92019;-44
2023/12/15 04:04:24;;;;;;;;;;;7.50;86.50;;;;;;4993805;28;91853;-46
2023/12/15 04:06:50;;;;;;;;;;;7.50;86.50;;;;;;4992568;28;92122;-45
2023/12/15 04:09:15;;;;;;;;;;;7.50;86.50;;;;;;4994348;28;92890;-46
2023/12/15 04:11:41;;;;;;;;;;;7.50;86.50;;;;;;4992207;28;91874;-45
2023/12/15 04:14:08;;;;;;;;;;;7.50;86.50;;;;;;4994535;28;92029;-45
2023/12/15 04:16:34;;;;;;;;;;;7.50;86.60;;;;;;4999740;28;92021;-45
2023/12/15 04:19:00;;;;;;;;;;;7.50;86.40;;;;;;4995350;28;93466;-44
2023/12/15 04:21:25;;;;;;;;;;;7.50;86.40;;;;;;4999526;28;92153;-44
2023/12/15 04:23:51;;;;;;;;;;;7.50;86.40;;;;;;4997032;28;92828;-45
2023/12/15 04:26:17;;;;;;;;;;;7.50;86.40;;;;;;4998997;28;92470;-45
2023/12/15 04:28:42;;;;;;;;;;;7.50;86.50;;;;;;4996996;28;92025;-45
2023/12/15 04:31:14;;;;;;;;;;;7.50;86.40;;;;;;4993253;28;93657;-45
2023/12/15 04:33:39;;;;;;;;;;;7.40;86.40;;;;;;4994434;28;92137;-46
2023/12/15 04:36:05;;;;;;;;;;;7.50;86.50;;;;;;4993448;28;91876;-45
2023/12/15 04:38:30;;;;;;;;;;;7.50;86.40;;;;;;4997770;28;92575;-44
2023/12/15 04:40:56;;;;;;;;;;;7.40;86.20;;;;;;5002245;28;92077;-46
2023/12/15 04:43:21;;;;;;;;;;;7.40;86.40;;;;;;4996836;28;92955;-45
2023/12/15 04:45:47;;;;;;;;;;;7.40;86.40;;;;;;4992621;28;92677;-46
2023/12/15 04:48:12;;;;;;;;;;;7.40;86.30;;;;;;5002306;28;92079;-45
2023/12/15 04:50:38;;;;;;;;;;;7.40;86.50;;;;;;4995112;28;91998;-46
2023/12/15 04:53:05;;;;;;;;;;;7.40;86.40;;;;;;4997600;28;92032;-44
2023/12/15 04:55:30;;;;;;;;;;;7.40;86.40;;;;;;4993413;28;92046;-45
2023/12/15 04:57:56;;;;;;;;;;;7.40;86.40;;;;;;5000030;28;92504;-46
2023/12/15 05:00:22;;;;;;;;;;;7.40;86.40;;;;;;4990889;28;91462;-45
2023/12/15 05:02:47;;;;;;;;;;;7.40;86.30;;;;;;4997158;28;92077;-45
2023/12/15 05:05:13;;;;;;;;;;;7.40;86.20;;;;;;4996348;28;93654;-45
2023/12/15 05:07:38;;;;;;;;;;;7.40;86.40;;;;;;4996099;28;93157;-45
2023/12/15 05:10:04;;;;;;;;;;;7.40;86.20;;;;;;4997808;28;92828;-45
2023/12/15 05:12:34;;;;;;;;;;;7.40;86.30;;;;;;4995955;28;92055;-47
2023/12/15 05:15:00;;;;;;;;;;;7.40;86.40;;;;;;4996875;28;93073;-45
2023/12/15 05:17:25;;;;;;;;;;;7.30;86.30;;;;;;4994645;28;93160;-45
2023/12/15 05:19:51;;;;;;;;;;;7.30;86.30;;;;;;4996257;28;92116;-46
2023/12/15 05:22:16;;;;;;;;;;;7.30;86.30;;;;;;4996811;28;91970;-46
2023/12/15 05:24:42;;;;;;;;;;;7.40;86.40;;;;;;4995844;28;91520;-45
2023/12/15 05:27:08;;;;;;;;;;;7.30;86.30;;;;;;4996653;28;92108;-44
2023/12/15 05:29:33;;;;;;;;;;;7.30;86.30;;;;;;5001023;28;92179;-44
2023/12/15 05:31:59;;;;;;;;;;;7.30;86.30;;;;;;4995164;28;93532;-46
2023/12/15 05:34:25;;;;;;;;;;;7.40;86.30;;;;;;4995298;28;93829;-45
2023/12/15 05:36:50;;;;;;;;;;;7.30;86.10;;;;;;4998025;28;93173;-45
2023/12/15 05:39:16;;;;;;;;;;;7.30;86.20;;;;;;4992991;28;91884;-46
2023/12/15 05:41:42;;;;;;;;;;;7.30;86.20;;;;;;4998488;28;92447;-45
2023/12/15 05:44:08;;;;;;;;;;;7.30;86.20;;;;;;5001583;28;93535;-44
2023/12/15 05:46:35;;;;;;;;;;;7.30;86.20;;;;;;4995384;28;92070;-46
2023/12/15 05:49:01;;;;;;;;;;;7.30;86.30;;;;;;5000719;28;93013;-46
2023/12/15 05:51:26;;;;;;;;;;;7.30;86.20;;;;;;4997709;28;92770;-45
2023/12/15 05:53:52;;;;;;;;;;;7.30;86.20;;;;;;4995771;28;92085;-47
2023/12/15 05:56:17;;;;;;;;;;;7.30;86.20;;;;;;4992360;28;94631;-45
2023/12/15 05:58:43;;;;;;;;;;;7.30;86.30;;;;;;4996239;28;92047;-46
2023/12/15 06:01:09;;;;;;;;;;;7.30;86.20;;;;;;4992223;28;92871;-45
2023/12/15 06:03:35;;;;;;;;;;;7.30;86.20;;;;;;4995016;28;92429;-45
2023/12/15 06:06:00;;;;;;;;;;;7.30;86.20;;;;;;4994098;28;92188;-45
2023/12/15 06:08:26;;;;;;;;;;;7.30;86.30;;;;;;4992426;28;92822;-45
2023/12/15 06:10:51;;;;;;;;;;;7.30;86.30;;;;;;4998111;28;92491;-45
2023/12/15 06:13:17;;;;;;;;;;;7.30;86.20;;;;;;4991623;28;92137;-46
2023/12/15 06:15:42;;;;;;;;;;;7.30;86.30;;;;;;4995294;28;93570;-45
2023/12/15 06:18:08;;;;;;;;;;;7.20;86.30;;;;;;4992137;28;91984;-44
2023/12/15 06:20:33;;;;;;;;;;;7.20;86.30;;;;;;4997107;28;93053;-45
2023/12/15 06:22:59;;;;;;;;;;;7.20;86.30;;;;;;4994727;28;93460;-46
2023/12/15 06:25:25;;;;;;;;;;;7.20;86.40;;;;;;4990114;28;93807;-45
2023/12/15 06:27:50;;;;;;;;;;;7.20;86.40;;;;;;4994806;28;92057;-46
2023/12/15 06:30:16;;;;;;;;;;;7.20;86.40;;;;;;4991998;28;93478;-45
2023/12/15 06:32:41;;;;;;;;;;;7.20;86.40;;;;;;4996555;28;92109;-45
2023/12/15 06:35:07;;;;;;;;;;;7.20;86.40;;;;;;5001248;28;92105;-44
2023/12/15 06:37:32;;;;;;;;;;;7.20;86.40;;;;;;4994480;28;91320;-46
2023/12/15 06:39:58;;;;;;;;;;;7.20;86.50;;;;;;4990242;28;92063;-45
2023/12/15 06:42:23;;;;;;;;;;;7.20;86.50;;;;;;4990587;28;92024;-45
2023/12/15 06:44:49;;;;;;;;;;;7.20;86.30;;;;;;4991090;28;92940;-45
2023/12/15 06:47:15;;;;;;;;;;;7.20;86.30;;;;;;4995111;28;92815;-45
2023/12/15 06:49:40;;;;;;;;;;;7.20;86.40;;;;;;4990491;28;92917;-45
2023/12/15 06:52:05;;;;;;;;;;;7.20;86.40;;;;;;4988747;28;92597;-45
2023/12/15 06:54:31;;;;;;;;;;;7.20;86.50;;;;;;4993454;28;91911;-45
2023/12/15 06:56:56;;;;;;;;;;;7.20;86.50;;;;;;5003580;28;95571;-45
2023/12/15 06:59:22;;;;;;;;;;;7.20;86.40;;;;;;4991573;28;92812;-46
2023/12/15 07:01:47;;;;;;;;;;;7.20;86.40;;;;;;4991791;28;92200;-44
2023/12/15 07:04:13;;;;;;;;;;;7.20;86.40;;;;;;4992767;28;92346;-46
2023/12/15 07:06:39;;;;;;;;;;;7.10;86.40;;;;;;4996134;28;94635;-46
2023/12/15 07:09:04;;;;;;;;;;;7.20;86.50;;;;;;4990260;28;93636;-45
2023/12/15 07:11:30;;;;;;;;;;;7.10;86.40;;;;;;4995166;28;92122;-45
2023/12/15 07:13:55;;;;;;;;;;;7.10;86.30;;;;;;4993963;28;92865;-46
2023/12/15 07:16:21;;;;;;;;;;;7.20;86.40;;;;;;4992728;28;93733;-45
2023/12/15 07:18:46;;;;;;;;;;;7.10;86.40;;;;;;4998339;28;93599;-45
2023/12/15 07:21:12;;;;;;;;;;;7.10;86.40;;;;;;4990970;28;92669;-44
2023/12/15 07:23:37;;;;;;;;;;;7.20;86.40;;;;;;4995270;28;92031;-44
2023/12/15 07:26:04;;;;;;;;;;;7.10;86.30;;;;;;4992883;28;91570;-46
2023/12/15 07:28:29;;;;;;;;;;;7.10;86.30;;;;;;4993772;28;93899;-45
2023/12/15 07:30:55;;;;;;;;;;;7.10;86.30;;;;;;4992985;28;91952;-45
2023/12/15 07:33:20;;;;;;;;;;;7.10;86.30;;;;;;4991317;28;92981;-45
2023/12/15 07:35:46;;;;;;;;;;;7.10;87.00;;;;;;4993681;28;93223;-44
2023/12/15 07:38:11;;;;;;;;;;;7.10;86.30;;;;;;4990518;28;92025;-44
2023/12/15 07:40:37;;;;;;;;;;;7.10;86.50;;;;;;4992552;28;92041;-45
2023/12/15 07:43:02;;;;;;;;;;;7.10;86.40;;;;;;4994970;28;92119;-46
2023/12/15 07:45:28;;;;;;;;;;;7.10;86.40;;;;;;4989434;28;93691;-46
2023/12/15 07:47:57;;;;;;;;;;;7.10;86.30;;;;;;4992069;28;93593;-45
2023/12/15 07:50:23;;;;;;;;;;;7.10;86.40;;;;;;4995945;28;91278;-45
2023/12/15 07:52:49;;;;;;;;;;;7.10;86.40;;;;;;5000619;28;92809;-45
2023/12/15 07:55:15;;;;;;;;;;;7.00;86.40;;;;;;4992306;28;92979;-46
2023/12/15 07:57:42;;;;;;;;;;;7.10;86.60;;;;;;4997926;28;93065;-45
2023/12/15 08:00:10;;;;;;;;;;;7.00;86.50;;;;;;5000344;28;94071;-45
2023/12/15 08:02:36;;;;;;;;;;;7.00;86.40;;;;;;4997369;28;92122;-46
2023/12/15 08:05:01;;;;;;;;;;;7.00;86.50;;;;;;5000267;28;93264;-45
2023/12/15 08:07:27;;;;;;;;;;;7.10;86.60;;;;;;4993249;28;93549;-45
2023/12/15 08:09:52;;;;;;;;;;;7.00;86.30;;;;;;5000117;28;92802;-45
2023/12/15 08:12:18;;;;;;;;;;;7.10;86.40;;;;;;4996077;28;93615;-45
2023/12/15 08:14:43;;;;;;;;;;;7.10;86.40;;;;;;4994765;28;91794;-47
2023/12/15 08:17:09;;;;;;;;;;;7.10;86.40;;;;;;4998051;28;92046;-45
2023/12/15 08:19:35;;;;;;;;;;;7.10;86.40;;;;;;5000934;28;92030;-45
2023/12/15 08:22:01;;;;;;;;;;;7.10;86.50;;;;;;4994415;28;93589;-45
2023/12/15 08:24:27;;;;;;;;;;;7.10;86.50;;;;;;4990636;28;93906;-45
2023/12/15 08:26:57;;;;;;;;;;;7.00;86.40;;;;;;4996129;28;92536;-45
2023/12/15 08:29:23;;;;;;;;;;;7.00;86.40;;;;;;4997199;28;92814;-45
2023/12/15 08:31:49;;;;;;;;;;;7.00;86.50;;;;;;4996713;28;92876;-45
2023/12/15 08:34:14;;;;;;;;;;;7.00;86.60;;;;;;5002527;28;93652;-44
2023/12/15 08:36:40;;;;;;;;;;;7.00;86.40;;;;;;4994283;28;92109;-46
2023/12/15 08:39:06;;;;;;;;;;;7.00;86.40;;;;;;5000537;28;91749;-45
2023/12/15 08:41:31;;;;;;;;;;;7.00;86.60;;;;;;4994118;28;93578;-45
2023/12/15 08:43:57;;;;;;;;;;;7.00;86.30;;;;;;4996153;28;92089;-45
2023/12/15 08:46:22;;;;;;;;;;;7.00;86.60;;;;;;4992417;28;93517;-46
2023/12/15 08:48:49;;;;;;;;;;;7.00;86.50;;;;;;4994942;28;92165;-46
2023/12/15 08:51:15;;;;;;;;;;;7.00;86.50;;;;;;4989368;28;92423;-45
2023/12/15 08:53:40;;;;;;;;;;;7.00;86.60;;;;;;4998116;28;92573;-46
2023/12/15 08:56:06;;;;;;;;;;;7.00;86.60;;;;;;4996074;28;92628;-45
2023/12/15 08:58:31;;;;;;;;;;;7.00;86.50;;;;;;4996740;28;92015;-45
2023/12/15 09:00:57;;;;;;;;;;;7.00;86.70;;;;;;4994436;28;92426;-45
2023/12/15 09:03:22;;;;;;;;;;;7.00;86.70;;;;;;4993276;28;91308;-48
2023/12/15 09:05:48;;;;;;;;;;;7.00;86.60;;;;;;5003577;28;93745;-48
2023/12/15 09:08:14;;;;;;;;;;;7.00;86.50;;;;;;4996047;28;92080;-50
2023/12/15 09:10:42;;;;;;;;;;;7.00;86.60;;;;;;4995553;28;93038;-46
2023/12/15 09:13:07;;;;;;;;;;;7.00;86.60;;;;;;4993573;28;93651;-46
2023/12/15 09:15:33;;;;;;;;;;;7.00;86.50;;;;;;4993718;28;92066;-47
2023/12/15 09:17:58;;;;;;;;;;;6.90;86.50;;;;;;4992463;28;92114;-45
2023/12/15 09:20:24;;;;;;;;;;;6.90;86.50;;;;;;4996205;28;92600;-47
2023/12/15 09:22:50;;;;;;;;;;;6.90;86.60;;;;;;4992976;28;92030;-47
2023/12/15 09:25:15;;;;;;;;;;;6.90;86.50;;;;;;4998268;28;92008;-45
2023/12/15 09:27:41;;;;;;;;;;;6.90;86.60;;;;;;4996864;28;91850;-45
2023/12/15 09:30:06;;;;;;;;;;;7.00;86.60;;;;;;4993742;28;92572;-47
2023/12/15 09:32:32;;;;;;;;;;;6.90;86.60;;;;;;4993713;28;93355;-46
2023/12/15 09:34:58;;;;;;;;;;;6.90;86.50;;;;;;4993820;28;93182;-45
2023/12/15 09:37:24;;;;;;;;;;;6.90;86.60;;;;;;4995474;28;92615;-45
2023/12/15 09:39:49;;;;;;;;;;;6.90;86.60;;;;;;4996936;28;92563;-46
2023/12/15 09:42:15;;;;;;;;;;;7.00;86.50;;;;;;4998878;28;92132;-45
2023/12/15 09:44:40;;;;;;;;;;;6.90;86.50;;;;;;4997198;28;92062;-47
2023/12/15 09:47:07;;;;;;;;;;;6.90;86.40;;;;;;4993690;28;93601;-45
2023/12/15 09:49:32;;;;;;;;;;;6.90;86.60;;;;;;5001587;28;92093;-44
2023/12/15 09:52:02;;;;;;;;;;;6.90;86.50;;;;;;4995922;28;91702;-45
2023/12/15 09:54:28;;;;;;;;;;;6.90;86.70;;;;;;4994983;28;92196;-46
2023/12/15 09:56:54;;;;;;;;;;;6.90;86.60;;;;;;4998269;28;92817;-45
2023/12/15 09:59:20;;;;;;;;;;;6.90;86.60;;;;;;4991931;28;93552;-46
2023/12/15 10:01:46;;;;;;;;;;;6.90;86.60;;;;;;4997687;28;91968;-45
2023/12/15 10:04:11;;;;;;;;;;;6.90;86.60;;;;;;4995545;28;92136;-45
2023/12/15 10:06:37;;;;;;;;;;;6.90;86.60;;;;;;4993765;28;93524;-45
2023/12/15 10:09:09;;;;;;;;;;;6.90;86.60;;;;;;4993879;28;92284;-47
2023/12/15 10:11:35;;;;;;;;;;;6.90;86.50;;;;;;4994658;28;92630;-46
2023/12/15 10:14:04;;;;;;;;;;;6.90;86.70;;;;;;4992172;28;92220;-45
2023/12/15 10:16:30;;;;;;;;;;;6.90;86.70;;;;;;4994142;28;92880;-45
2023/12/15 10:18:55;;;;;;;;;;;6.80;86.50;;;;;;4993902;28;92436;-44
2023/12/15 10:21:21;;;;;;;;;;;6.80;86.60;;;;;;4994252;28;92222;-45
2023/12/15 10:23:46;;;;;;;;;;;6.90;86.50;;;;;;4991467;28;93255;-45
2023/12/15 10:26:12;;;;;;;;;;;6.80;86.40;;;;;;4997382;28;92566;-45
2023/12/15 10:28:38;;;;;;;;;;;6.80;86.60;;;;;;4998029;28;92128;-46
2023/12/15 10:31:04;;;;;;;;;;;6.80;86.50;;;;;;4998692;28;92869;-45
2023/12/15 10:33:30;;;;;;;;;;;6.80;86.60;;;;;;4992625;28;93275;-45
2023/12/15 10:35:57;;;;;;;;;;;6.80;86.60;;;;;;4989970;28;92219;-45
2023/12/15 10:38:23;;;;;;;;;;;6.80;86.60;;;;;;4997800;28;93941;-46
2023/12/15 10:40:48;;;;;;;;;;;6.80;86.60;;;;;;4991861;28;91300;-46
2023/12/15 10:43:14;;;;;;;;;;;6.80;86.50;;;;;;4997097;28;92770;-45
2023/12/15 10:45:39;;;;;;;;;;;6.80;86.80;;;;;;4993538;28;92582;-46
2023/12/15 10:48:07;;;;;;;;;;;6.80;86.50;;;;;;4994187;28;93038;-46
2023/12/15 10:50:33;;;;;;;;;;;6.80;86.50;;;;;;4993687;28;92735;-45
2023/12/15 10:52:59;;;;;;;;;;;6.80;86.70;;;;;;4995319;28;93437;-45
2023/12/15 10:55:26;;;;;;;;;;;6.80;86.60;;;;;;4993819;28;91999;-44
2023/12/15 10:57:52;;;;;;;;;;;6.80;86.70;;;;;;4993337;28;93627;-45
2023/12/15 11:00:18;;;;;;;;;;;6.80;86.50;;;;;;4990609;28;92076;-45
2023/12/15 11:02:44;;;;;;;;;;;6.80;86.60;;;;;;4997151;28;91994;-44
2023/12/15 11:05:10;;;;;;;;;;;6.80;86.60;;;;;;4995408;28;91759;-46
2023/12/15 11:07:36;;;;;;;;;;;6.80;86.70;;;;;;4998108;28;92082;-44
2023/12/15 11:10:03;;;;;;;;;;;6.70;86.70;;;;;;4994395;28;92956;-46
2023/12/15 11:12:32;;;;;;;;;;;6.70;86.70;;;;;;4993764;28;94127;-46
2023/12/15 11:14:58;;;;;;;;;;;6.70;86.70;;;;;;4994382;28;91981;-45
2023/12/15 11:17:24;;;;;;;;;;;6.70;86.60;;;;;;4992052;28;93513;-44
2023/12/15 11:19:53;;;;;;;;;;;6.70;86.70;;;;;;4997343;28;92080;-46
2023/12/15 11:22:20;;;;;;;;;;;6.70;86.60;;;;;;4994667;28;92124;-45
2023/12/15 11:24:46;;;;;;;;;;;6.80;86.80;;;;;;4998126;28;92585;-46
2023/12/15 11:27:13;;;;;;;;;;;6.70;86.80;;;;;;4995195;28;94069;-45
2023/12/15 11:29:38;;;;;;;;;;;6.70;86.60;;;;;;4991407;28;91862;-45
2023/12/15 11:32:23;;;;;;;;;;;6.70;86.60;;;;;;4990317;28;93617;-45
2023/12/15 11:34:48;;;;;;;;;;;6.70;86.60;;;;;;4992779;28;92050;-46
2023/12/15 11:37:14;;;;;;;;;;;6.70;86.60;;;;;;4992581;28;93657;-45
2023/12/15 11:39:40;;;;;;;;;;;6.70;86.60;;;;;;4992879;28;92649;-46
2023/12/15 11:42:07;;;;;;;;;;;6.70;86.70;;;;;;4992072;28;92038;-46
2023/12/15 11:44:33;;;;;;;;;;;6.70;86.60;;;;;;4994963;28;93546;-44
2023/12/15 11:46:58;;;;;;;;;;;6.70;86.80;;;;;;4990650;28;92151;-45
2023/12/15 11:49:24;;;;;;;;;;;6.70;86.60;;;;;;4998118;28;92092;-47
2023/12/15 11:51:50;;;;;;;;;;;6.70;86.60;;;;;;4994098;28;92492;-47
2023/12/15 11:54:16;;;;;;;;;;;6.70;86.70;;;;;;4997091;28;93044;-45
2023/12/15 11:56:41;;;;;;;;;;;6.70;86.70;;;;;;4993384;28;92343;-45
2023/12/15 11:59:07;;;;;;;;;;;6.70;86.50;;;;;;4995263;28;92043;-44
2023/12/15 12:01:37;;;;;;;;;;;6.70;86.60;;;;;;4989917;28;93246;-46
2023/12/15 12:04:02;;;;;;;;;;;6.70;86.60;;;;;;4994281;28;92756;-47
2023/12/15 12:06:29;;;;;;;;;;;6.70;86.60;;;;;;4993585;28;93759;-44
2023/12/15 12:08:55;;;;;;;;;;;6.70;86.80;;;;;;4993626;28;92009;-46
2023/12/15 12:11:21;;;;;;;;;;;6.60;86.80;;;;;;4994523;28;93585;-45
2023/12/15 12:13:48;;;;;;;;;;;6.60;86.70;;;;;;4991687;28;92467;-44
2023/12/15 12:16:15;;;;;;;;;;;6.70;86.60;;;;;;4994291;28;92756;-45
2023/12/15 12:18:41;;;;;;;;;;;6.70;86.60;;;;;;4997455;28;92154;-47
2023/12/15 12:21:07;;;;;;;;;;;6.70;86.50;;;;;;4996112;28;91999;-45
2023/12/15 12:23:33;;;;;;;;;;;6.70;86.60;;;;;;4990436;28;93623;-44
2023/12/15 12:25:59;;;;;;;;;;;6.70;86.60;;;;;;4985964;28;93052;-44
2023/12/15 12:28:25;;;;;;;;;;;6.70;86.60;;;;;;4994558;28;93983;-46
2023/12/15 12:30:50;;;;;;;;;;;6.60;86.60;;;;;;4993415;28;93766;-45
2023/12/15 12:33:19;;;;;;;;;;;6.60;86.60;;;;;;4991979;28;92420;-45
2023/12/15 12:35:44;;;;;;;;;;;6.70;86.70;;;;;;4994454;28;92028;-45
2023/12/15 12:38:10;;;;;;;;;;;6.70;86.60;;;;;;4993295;28;93712;-45
2023/12/15 12:40:35;;;;;;;;;;;6.70;86.60;;;;;;4999487;28;92803;-45
2023/12/15 12:43:01;;;;;;;;;;;6.60;86.60;;;;;;4996903;28;91864;-44
2023/12/15 12:45:31;;;;;;;;;;;6.60;86.70;;;;;;5001331;28;92258;-45
2023/12/15 12:47:56;;;;;;;;;;;6.60;86.60;;;;;;4998290;28;91966;-45
2023/12/15 12:50:22;;;;;;;;;;;6.60;86.70;;;;;;4997253;28;93431;-44
2023/12/15 12:52:48;;;;;;;;;;;6.60;86.80;;;;;;4995088;28;92110;-44
2023/12/15 12:55:13;;;;;;;;;;;6.60;86.60;;;;;;5002998;28;92695;-45
2023/12/15 12:57:39;;;;;;;;;;;6.60;86.60;;;;;;4997036;28;93653;-44
2023/12/15 13:00:06;;;;;;;;;;;6.60;86.70;;;;;;4989388;28;92739;-45
2023/12/15 13:02:35;;;;;;;;;;;6.60;86.80;;;;;;4996842;28;94130;-45
2023/12/15 13:05:01;;;;;;;;;;;6.60;86.70;;;;;;4995804;28;92106;-46
2023/12/15 13:07:26;;;;;;;;;;;6.60;86.50;;;;;;4997502;28;92548;-45
2023/12/15 13:09:52;;;;;;;;;;;6.60;86.60;;;;;;4994518;28;92564;-45
2023/12/15 13:12:18;;;;;;;;;;;6.60;86.70;;;;;;4998613;28;92209;-43
2023/12/15 13:14:45;;;;;;;;;;;6.60;86.60;;;;;;4999614;28;93229;-44
2023/12/15 13:17:12;;;;;;;;;;;6.60;86.50;;;;;;4994693;28;93575;-45
2023/12/15 13:19:37;;;;;;;;;;;6.60;86.60;;;;;;4994461;28;93131;-45
2023/12/15 13:22:03;;;;;;;;;;;6.60;86.60;;;;;;4993161;28;92013;-43
2023/12/15 13:24:29;;;;;;;;;;;6.60;86.70;;;;;;5000943;28;93903;-44
2023/12/15 13:26:54;;;;;;;;;;;6.50;86.80;;;;;;4995879;28;92035;-44
2023/12/15 13:29:20;;;;;;;;;;;6.50;86.60;;;;;;4991604;28;92027;-44
2023/12/15 13:31:45;;;;;;;;;;;6.60;86.60;;;;;;4994064;28;91302;-44
2023/12/15 13:34:11;;;;;;;;;;;6.50;86.60;;;;;;4999366;28;92046;-44
2023/12/15 13:36:36;;;;;;;;;;;6.50;86.50;;;;;;4999736;28;93802;-46
2023/12/15 13:39:02;;;;;;;;;;;6.60;86.50;;;;;;4993429;28;92953;-44
2023/12/15 13:41:28;;;;;;;;;;;6.50;86.50;;;;;;4996003;28;93869;-44
2023/12/15 13:43:54;;;;;;;;;;;6.50;86.70;;;;;;4997584;28;94011;-44
2023/12/15 13:46:21;;;;;;;;;;;6.50;86.70;;;;;;4998374;28;92041;-44
2023/12/15 13:48:46;;;;;;;;;;;6.50;86.60;;;;;;4991004;28;92470;-44
2023/12/15 13:51:12;;;;;;;;;;;6.50;86.60;;;;;;4992927;28;92054;-44
2023/12/15 13:53:37;;;;;;;;;;;6.50;86.60;;;;;;4997024;28;92088;-44
2023/12/15 13:56:03;;;;;;;;;;;6.50;86.70;;;;;;4993153;28;91838;-45
2023/12/15 13:58:29;;;;;;;;;;;6.50;86.70;;;;;;4991762;28;92018;-44
2023/12/15 14:00:54;;;;;;;;;;;6.50;86.60;;;;;;4996256;28;92837;-45
2023/12/15 14:03:20;;;;;;;;;;;6.50;86.50;;;;;;4994359;28;94506;-44
2023/12/15 14:05:45;;;;;;;;;;;6.50;86.50;;;;;;4996607;28;92104;-44
2023/12/15 14:08:11;;;;;;;;;;;6.50;86.80;;;;;;4995566;28;93780;-44
2023/12/15 14:10:37;;;;;;;;;;;6.50;86.70;;;;;;4991804;28;92126;-44
2023/12/15 14:13:03;;;;;;;;;;;6.50;86.60;;;;;;4995853;28;92935;-44
2023/12/15 14:15:29;;;;;;;;;;;6.50;86.60;;;;;;4989961;28;93543;-45
2023/12/15 14:17:54;;;;;;;;;;;6.50;86.60;;;;;;4996279;28;92039;-44
2023/12/15 14:20:20;;;;;;;;;;;6.40;86.60;;;;;;4998717;28;91610;-44
2023/12/15 14:22:46;;;;;;;;;;;6.50;86.60;;;;;;4990168;28;93709;-44